sensor_id;sensor_type;location;lat;lon;timestamp;P1;durP1;ratioP1;P2;durP2;ratioP2
51714;SDS011;39115;59.332;18.034;2023-09-19T00:00:14;0.30;;;0.20;;
51714;SDS011;39115;59.332;18.034;2023-09-19T00:02:35;0.52;;;0.20;;
51714;SDS011;39115;59.332;18.034;2023-09-19T00:04:56;0.20;;;0.10;;
51714;SDS011;39115;59.332;18.034;2023-09-19T00:07:17;0.40;;;0.10;;
51714;SDS011;39115;59.332;18.034;2023-09-19T00:09:37;0.20;;;0.20;;
51714;SDS011;39115;59.332;18.034;2023-09-19T00:11:58;0.30;;;0.20;;
51714;SDS011;39115;59.332;18.034;2023-09-19T00:14:19;0.20;;;0.20;;
51714;SDS011;39115;59.332;18.034;2023-09-19T00:16:40;0.75;;;0.20;;
51714;SDS011;39115;59.332;18.034;2023-09-19T00:19:01;0.35;;;0.20;;
51714;SDS011;39115;59.332;18.034;2023-09-19T00:21:28;0.75;;;0.20;;
51714;SDS011;39115;59.332;18.034;2023-09-19T00:23:51;0.30;;;0.20;;
51714;SDS011;39115;59.332;18.034;2023-09-19T00:26:12;0.80;;;0.20;;
51714;SDS011;39115;59.332;18.034;2023-09-19T00:28:33;0.40;;;0.10;;
51714;SDS011;39115;59.332;18.034;2023-09-19T00:30:53;0.30;;;0.20;;
51714;SDS011;39115;59.332;18.034;2023-09-19T00:33:15;0.30;;;0.10;;
51714;SDS011;39115;59.332;18.034;2023-09-19T00:35:36;0.30;;;0.20;;
51714;SDS011;39115;59.332;18.034;2023-09-19T00:37:57;0.45;;;0.20;;
51714;SDS011;39115;59.332;18.034;2023-09-19T00:40:17;0.25;;;0.10;;
51714;SDS011;39115;59.332;18.034;2023-09-19T00:42:39;0.30;;;0.15;;
51714;SDS011;39115;59.332;18.034;2023-09-19T00:45:01;0.40;;;0.30;;
51714;SDS011;39115;59.332;18.034;2023-09-19T00:47:23;0.30;;;0.20;;
51714;SDS011;39115;59.332;18.034;2023-09-19T00:49:45;1.30;;;0.20;;
51714;SDS011;39115;59.332;18.034;2023-09-19T00:54:32;0.30;;;0.20;;
51714;SDS011;39115;59.332;18.034;2023-09-19T00:56:55;0.60;;;0.20;;
51714;SDS011;39115;59.332;18.034;2023-09-19T00:59:16;0.50;;;0.20;;
51714;SDS011;39115;59.332;18.034;2023-09-19T01:01:37;1.45;;;0.20;;
51714;SDS011;39115;59.332;18.034;2023-09-19T01:03:59;0.50;;;0.20;;
51714;SDS011;39115;59.332;18.034;2023-09-19T01:06:20;0.75;;;0.20;;
51714;SDS011;39115;59.332;18.034;2023-09-19T01:08:41;1.42;;;0.20;;
51714;SDS011;39115;59.332;18.034;2023-09-19T01:11:16;0.20;;;0.13;;
51714;SDS011;39115;59.332;18.034;2023-09-19T01:30:10;0.45;;;0.20;;
51714;SDS011;39115;59.332;18.034;2023-09-19T01:32:35;0.73;;;0.30;;
51714;SDS011;39115;59.332;18.034;2023-09-19T01:34:58;0.60;;;0.30;;
51714;SDS011;39115;59.332;18.034;2023-09-19T01:37:23;0.50;;;0.30;;
51714;SDS011;39115;59.332;18.034;2023-09-19T01:39:48;0.40;;;0.30;;
51714;SDS011;39115;59.332;18.034;2023-09-19T01:47:13;0.40;;;0.30;;
51714;SDS011;39115;59.332;18.034;2023-09-19T01:49:44;0.95;;;0.30;;
51714;SDS011;39115;59.332;18.034;2023-09-19T01:52:28;0.50;;;0.25;;
51714;SDS011;39115;59.332;18.034;2023-09-19T01:54:56;0.38;;;0.25;;
51714;SDS011;39115;59.332;18.034;2023-09-19T01:57:29;0.28;;;0.20;;
51714;SDS011;39115;59.332;18.034;2023-09-19T02:00:06;0.38;;;0.22;;
51714;SDS011;39115;59.332;18.034;2023-09-19T02:02:29;0.75;;;0.30;;
51714;SDS011;39115;59.332;18.034;2023-09-19T02:04:50;0.40;;;0.30;;
51714;SDS011;39115;59.332;18.034;2023-09-19T02:07:11;0.50;;;0.30;;
51714;SDS011;39115;59.332;18.034;2023-09-19T02:09:32;1.10;;;0.38;;
51714;SDS011;39115;59.332;18.034;2023-09-19T02:11:55;0.30;;;0.20;;
51714;SDS011;39115;59.332;18.034;2023-09-19T02:14:16;0.60;;;0.30;;
51714;SDS011;39115;59.332;18.034;2023-09-19T02:16:37;0.43;;;0.30;;
51714;SDS011;39115;59.332;18.034;2023-09-19T02:18:58;0.43;;;0.30;;
51714;SDS011;39115;59.332;18.034;2023-09-19T02:21:20;0.57;;;0.20;;
51714;SDS011;39115;59.332;18.034;2023-09-19T02:23:42;0.60;;;0.40;;
51714;SDS011;39115;59.332;18.034;2023-09-19T02:26:03;0.50;;;0.38;;
51714;SDS011;39115;59.332;18.034;2023-09-19T02:28:25;0.52;;;0.30;;
51714;SDS011;39115;59.332;18.034;2023-09-19T02:30:50;0.60;;;0.40;;
51714;SDS011;39115;59.332;18.034;2023-09-19T02:33:10;0.90;;;0.32;;
51714;SDS011;39115;59.332;18.034;2023-09-19T02:35:31;0.30;;;0.30;;
51714;SDS011;39115;59.332;18.034;2023-09-19T02:37:56;0.45;;;0.40;;
51714;SDS011;39115;59.332;18.034;2023-09-19T02:40:16;0.95;;;0.30;;
51714;SDS011;39115;59.332;18.034;2023-09-19T02:42:42;0.55;;;0.30;;
51714;SDS011;39115;59.332;18.034;2023-09-19T02:45:02;0.80;;;0.35;;
51714;SDS011;39115;59.332;18.034;2023-09-19T02:47:25;0.70;;;0.50;;
51714;SDS011;39115;59.332;18.034;2023-09-19T02:49:47;0.47;;;0.30;;
51714;SDS011;39115;59.332;18.034;2023-09-19T02:52:07;0.70;;;0.40;;
51714;SDS011;39115;59.332;18.034;2023-09-19T02:54:28;0.98;;;0.30;;
51714;SDS011;39115;59.332;18.034;2023-09-19T02:56:49;1.25;;;0.50;;
51714;SDS011;39115;59.332;18.034;2023-09-19T02:59:09;0.68;;;0.40;;
51714;SDS011;39115;59.332;18.034;2023-09-19T03:01:30;1.00;;;0.30;;
51714;SDS011;39115;59.332;18.034;2023-09-19T03:03:50;0.50;;;0.30;;
51714;SDS011;39115;59.332;18.034;2023-09-19T03:06:11;1.35;;;0.50;;
51714;SDS011;39115;59.332;18.034;2023-09-19T03:08:33;0.40;;;0.30;;
51714;SDS011;39115;59.332;18.034;2023-09-19T03:10:56;0.50;;;0.30;;
51714;SDS011;39115;59.332;18.034;2023-09-19T03:13:16;0.60;;;0.40;;
51714;SDS011;39115;59.332;18.034;2023-09-19T03:15:40;0.52;;;0.32;;
51714;SDS011;39115;59.332;18.034;2023-09-19T03:18:04;0.65;;;0.40;;
51714;SDS011;39115;59.332;18.034;2023-09-19T03:20:24;1.02;;;0.40;;
51714;SDS011;39115;59.332;18.034;2023-09-19T03:22:45;0.95;;;0.50;;
51714;SDS011;39115;59.332;18.034;2023-09-19T03:25:07;0.50;;;0.45;;
51714;SDS011;39115;59.332;18.034;2023-09-19T03:27:28;0.95;;;0.47;;
51714;SDS011;39115;59.332;18.034;2023-09-19T03:29:48;0.73;;;0.40;;
51714;SDS011;39115;59.332;18.034;2023-09-19T03:32:09;0.60;;;0.45;;
51714;SDS011;39115;59.332;18.034;2023-09-19T03:34:32;0.73;;;0.60;;
51714;SDS011;39115;59.332;18.034;2023-09-19T03:36:52;1.05;;;0.50;;
51714;SDS011;39115;59.332;18.034;2023-09-19T03:39:13;0.73;;;0.50;;
51714;SDS011;39115;59.332;18.034;2023-09-19T03:41:37;0.93;;;0.40;;
51714;SDS011;39115;59.332;18.034;2023-09-19T03:43:57;0.80;;;0.40;;
51714;SDS011;39115;59.332;18.034;2023-09-19T03:46:18;0.70;;;0.50;;
51714;SDS011;39115;59.332;18.034;2023-09-19T03:48:39;0.60;;;0.50;;
51714;SDS011;39115;59.332;18.034;2023-09-19T03:50:59;1.05;;;0.40;;
51714;SDS011;39115;59.332;18.034;2023-09-19T03:53:20;1.77;;;0.60;;
51714;SDS011;39115;59.332;18.034;2023-09-19T03:55:41;0.80;;;0.50;;
51714;SDS011;39115;59.332;18.034;2023-09-19T03:58:02;0.57;;;0.50;;
51714;SDS011;39115;59.332;18.034;2023-09-19T04:00:24;0.88;;;0.60;;
51714;SDS011;39115;59.332;18.034;2023-09-19T04:02:46;0.43;;;0.35;;
51714;SDS011;39115;59.332;18.034;2023-09-19T04:07:32;0.70;;;0.40;;
51714;SDS011;39115;59.332;18.034;2023-09-19T04:09:54;0.77;;;0.40;;
51714;SDS011;39115;59.332;18.034;2023-09-19T04:12:15;0.70;;;0.40;;
51714;SDS011;39115;59.332;18.034;2023-09-19T04:14:37;0.98;;;0.47;;
51714;SDS011;39115;59.332;18.034;2023-09-19T04:16:58;1.05;;;0.50;;
51714;SDS011;39115;59.332;18.034;2023-09-19T04:19:19;1.05;;;0.70;;
51714;SDS011;39115;59.332;18.034;2023-09-19T04:21:42;0.80;;;0.43;;
51714;SDS011;39115;59.332;18.034;2023-09-19T04:24:03;1.10;;;0.60;;
51714;SDS011;39115;59.332;18.034;2023-09-19T04:26:24;0.70;;;0.40;;
51714;SDS011;39115;59.332;18.034;2023-09-19T04:28:46;0.60;;;0.43;;
51714;SDS011;39115;59.332;18.034;2023-09-19T04:31:06;1.02;;;0.60;;
51714;SDS011;39115;59.332;18.034;2023-09-19T04:33:28;0.93;;;0.50;;
51714;SDS011;39115;59.332;18.034;2023-09-19T04:35:49;1.25;;;0.50;;
51714;SDS011;39115;59.332;18.034;2023-09-19T04:38:11;1.05;;;0.50;;
51714;SDS011;39115;59.332;18.034;2023-09-19T04:40:32;0.75;;;0.60;;
51714;SDS011;39115;59.332;18.034;2023-09-19T04:42:54;0.65;;;0.60;;
51714;SDS011;39115;59.332;18.034;2023-09-19T04:45:17;0.70;;;0.60;;
51714;SDS011;39115;59.332;18.034;2023-09-19T04:47:40;0.80;;;0.50;;
51714;SDS011;39115;59.332;18.034;2023-09-19T04:50:00;0.95;;;0.50;;
51714;SDS011;39115;59.332;18.034;2023-09-19T04:52:21;1.23;;;0.60;;
51714;SDS011;39115;59.332;18.034;2023-09-19T04:54:42;1.35;;;0.80;;
51714;SDS011;39115;59.332;18.034;2023-09-19T04:57:02;0.65;;;0.60;;
51714;SDS011;39115;59.332;18.034;2023-09-19T04:59:26;1.02;;;0.60;;
51714;SDS011;39115;59.332;18.034;2023-09-19T05:01:48;0.80;;;0.50;;
51714;SDS011;39115;59.332;18.034;2023-09-19T05:04:09;0.52;;;0.52;;
51714;SDS011;39115;59.332;18.034;2023-09-19T05:06:29;0.90;;;0.60;;
51714;SDS011;39115;59.332;18.034;2023-09-19T05:08:50;0.60;;;0.50;;
51714;SDS011;39115;59.332;18.034;2023-09-19T05:11:11;0.70;;;0.70;;
51714;SDS011;39115;59.332;18.034;2023-09-19T05:13:31;0.73;;;0.55;;
51714;SDS011;39115;59.332;18.034;2023-09-19T05:15:52;0.70;;;0.50;;
51714;SDS011;39115;59.332;18.034;2023-09-19T05:18:12;0.70;;;0.60;;
51714;SDS011;39115;59.332;18.034;2023-09-19T05:20:34;0.70;;;0.60;;
51714;SDS011;39115;59.332;18.034;2023-09-19T05:27:42;0.73;;;0.60;;
51714;SDS011;39115;59.332;18.034;2023-09-19T05:30:04;0.65;;;0.57;;
51714;SDS011;39115;59.332;18.034;2023-09-19T05:32:25;1.30;;;0.60;;
51714;SDS011;39115;59.332;18.034;2023-09-19T05:34:46;0.60;;;0.52;;
51714;SDS011;39115;59.332;18.034;2023-09-19T05:37:13;1.20;;;0.73;;
51714;SDS011;39115;59.332;18.034;2023-09-19T05:39:36;1.02;;;0.70;;
51714;SDS011;39115;59.332;18.034;2023-09-19T05:41:57;0.73;;;0.57;;
51714;SDS011;39115;59.332;18.034;2023-09-19T05:44:18;0.95;;;0.60;;
51714;SDS011;39115;59.332;18.034;2023-09-19T05:46:38;0.77;;;0.75;;
51714;SDS011;39115;59.332;18.034;2023-09-19T05:48:59;1.33;;;0.90;;
51714;SDS011;39115;59.332;18.034;2023-09-19T05:51:20;1.50;;;0.65;;
51714;SDS011;39115;59.332;18.034;2023-09-19T05:53:42;1.05;;;0.77;;
51714;SDS011;39115;59.332;18.034;2023-09-19T05:56:03;1.08;;;0.60;;
51714;SDS011;39115;59.332;18.034;2023-09-19T05:58:24;1.27;;;0.85;;
51714;SDS011;39115;59.332;18.034;2023-09-19T06:00:45;0.70;;;0.68;;
51714;SDS011;39115;59.332;18.034;2023-09-19T06:03:07;1.08;;;0.60;;
51714;SDS011;39115;59.332;18.034;2023-09-19T06:05:28;0.80;;;0.60;;
51714;SDS011;39115;59.332;18.034;2023-09-19T06:07:50;0.80;;;0.70;;
51714;SDS011;39115;59.332;18.034;2023-09-19T06:10:12;1.20;;;0.70;;
51714;SDS011;39115;59.332;18.034;2023-09-19T06:12:33;0.82;;;0.70;;
51714;SDS011;39115;59.332;18.034;2023-09-19T06:14:57;1.00;;;0.80;;
51714;SDS011;39115;59.332;18.034;2023-09-19T06:17:19;1.38;;;0.70;;
51714;SDS011;39115;59.332;18.034;2023-09-19T06:19:42;0.90;;;0.52;;
51714;SDS011;39115;59.332;18.034;2023-09-19T06:22:06;1.15;;;0.93;;
51714;SDS011;39115;59.332;18.034;2023-09-19T06:24:27;1.38;;;0.47;;
51714;SDS011;39115;59.332;18.034;2023-09-19T06:26:48;0.82;;;0.70;;
51714;SDS011;39115;59.332;18.034;2023-09-19T06:29:10;0.80;;;0.70;;
51714;SDS011;39115;59.332;18.034;2023-09-19T06:31:30;1.17;;;0.88;;
51714;SDS011;39115;59.332;18.034;2023-09-19T06:33:51;0.80;;;0.70;;
51714;SDS011;39115;59.332;18.034;2023-09-19T06:36:12;1.42;;;0.63;;
51714;SDS011;39115;59.332;18.034;2023-09-19T06:38:33;1.10;;;0.70;;
51714;SDS011;39115;59.332;18.034;2023-09-19T06:40:57;1.02;;;0.85;;
51714;SDS011;39115;59.332;18.034;2023-09-19T06:43:18;1.10;;;0.80;;
51714;SDS011;39115;59.332;18.034;2023-09-19T06:45:39;1.23;;;0.70;;
51714;SDS011;39115;59.332;18.034;2023-09-19T06:48:00;1.20;;;0.73;;
51714;SDS011;39115;59.332;18.034;2023-09-19T06:50:23;1.38;;;1.00;;
51714;SDS011;39115;59.332;18.034;2023-09-19T06:52:45;0.85;;;0.73;;
51714;SDS011;39115;59.332;18.034;2023-09-19T06:55:09;1.10;;;0.90;;
51714;SDS011;39115;59.332;18.034;2023-09-19T06:57:31;0.82;;;0.82;;
51714;SDS011;39115;59.332;18.034;2023-09-19T06:59:52;1.05;;;0.77;;
51714;SDS011;39115;59.332;18.034;2023-09-19T07:02:13;0.90;;;0.80;;
51714;SDS011;39115;59.332;18.034;2023-09-19T07:04:33;1.25;;;0.77;;
51714;SDS011;39115;59.332;18.034;2023-09-19T07:06:54;1.77;;;0.85;;
51714;SDS011;39115;59.332;18.034;2023-09-19T07:09:15;1.70;;;0.85;;
51714;SDS011;39115;59.332;18.034;2023-09-19T07:11:42;1.05;;;0.95;;
51714;SDS011;39115;59.332;18.034;2023-09-19T07:14:03;1.00;;;0.77;;
51714;SDS011;39115;59.332;18.034;2023-09-19T07:16:27;1.13;;;1.02;;
51714;SDS011;39115;59.332;18.034;2023-09-19T07:18:50;1.00;;;0.70;;
51714;SDS011;39115;59.332;18.034;2023-09-19T07:21:11;1.08;;;0.88;;
51714;SDS011;39115;59.332;18.034;2023-09-19T07:23:35;0.75;;;0.65;;
51714;SDS011;39115;59.332;18.034;2023-09-19T07:25:59;1.80;;;1.00;;
51714;SDS011;39115;59.332;18.034;2023-09-19T07:28:20;1.20;;;1.10;;
51714;SDS011;39115;59.332;18.034;2023-09-19T07:30:41;0.80;;;0.80;;
51714;SDS011;39115;59.332;18.034;2023-09-19T07:33:01;1.15;;;1.02;;
51714;SDS011;39115;59.332;18.034;2023-09-19T07:35:22;1.00;;;0.80;;
51714;SDS011;39115;59.332;18.034;2023-09-19T07:37:43;1.05;;;0.95;;
51714;SDS011;39115;59.332;18.034;2023-09-19T07:40:05;1.30;;;0.73;;
51714;SDS011;39115;59.332;18.034;2023-09-19T07:42:27;1.00;;;0.77;;
51714;SDS011;39115;59.332;18.034;2023-09-19T07:44:47;0.90;;;0.80;;
51714;SDS011;39115;59.332;18.034;2023-09-19T07:47:10;1.17;;;1.00;;
51714;SDS011;39115;59.332;18.034;2023-09-19T07:49:31;0.90;;;0.77;;
51714;SDS011;39115;59.332;18.034;2023-09-19T07:51:52;1.40;;;1.00;;
51714;SDS011;39115;59.332;18.034;2023-09-19T07:54:14;1.48;;;0.75;;
51714;SDS011;39115;59.332;18.034;2023-09-19T07:56:34;1.58;;;1.25;;
51714;SDS011;39115;59.332;18.034;2023-09-19T07:58:55;1.02;;;0.80;;
51714;SDS011;39115;59.332;18.034;2023-09-19T08:01:19;1.05;;;0.95;;
51714;SDS011;39115;59.332;18.034;2023-09-19T08:03:39;1.15;;;1.05;;
51714;SDS011;39115;59.332;18.034;2023-09-19T08:06:03;0.93;;;0.75;;
51714;SDS011;39115;59.332;18.034;2023-09-19T08:08:24;1.05;;;0.95;;
51714;SDS011;39115;59.332;18.034;2023-09-19T08:10:46;1.83;;;1.02;;
51714;SDS011;39115;59.332;18.034;2023-09-19T08:13:18;1.30;;;1.20;;
51714;SDS011;39115;59.332;18.034;2023-09-19T08:15:42;1.02;;;0.80;;
51714;SDS011;39115;59.332;18.034;2023-09-19T08:18:04;1.83;;;0.70;;
51714;SDS011;39115;59.332;18.034;2023-09-19T08:20:25;1.33;;;1.00;;
51714;SDS011;39115;59.332;18.034;2023-09-19T08:22:49;1.35;;;1.25;;
51714;SDS011;39115;59.332;18.034;2023-09-19T08:25:20;1.38;;;0.80;;
51714;SDS011;39115;59.332;18.034;2023-09-19T08:27:49;2.40;;;0.95;;
51714;SDS011;39115;59.332;18.034;2023-09-19T08:30:11;1.13;;;1.00;;
51714;SDS011;39115;59.332;18.034;2023-09-19T08:32:31;1.10;;;1.00;;
51714;SDS011;39115;59.332;18.034;2023-09-19T08:34:52;1.30;;;1.20;;
51714;SDS011;39115;59.332;18.034;2023-09-19T08:37:13;1.23;;;1.00;;
51714;SDS011;39115;59.332;18.034;2023-09-19T08:39:33;1.27;;;1.17;;
51714;SDS011;39115;59.332;18.034;2023-09-19T08:41:59;1.88;;;1.42;;
51714;SDS011;39115;59.332;18.034;2023-09-19T08:44:21;1.58;;;1.10;;
51714;SDS011;39115;59.332;18.034;2023-09-19T08:46:41;1.60;;;1.10;;
51714;SDS011;39115;59.332;18.034;2023-09-19T08:49:04;1.40;;;1.30;;
51714;SDS011;39115;59.332;18.034;2023-09-19T08:51:45;2.03;;;1.10;;
51714;SDS011;39115;59.332;18.034;2023-09-19T08:54:06;0.98;;;0.93;;
51714;SDS011;39115;59.332;18.034;2023-09-19T08:56:27;1.50;;;1.20;;
51714;SDS011;39115;59.332;18.034;2023-09-19T09:01:17;1.42;;;1.27;;
51714;SDS011;39115;59.332;18.034;2023-09-19T09:03:45;1.73;;;1.30;;
51714;SDS011;39115;59.332;18.034;2023-09-19T09:06:08;1.13;;;1.00;;
51714;SDS011;39115;59.332;18.034;2023-09-19T09:08:33;1.38;;;1.20;;
51714;SDS011;39115;59.332;18.034;2023-09-19T09:10:54;1.23;;;1.13;;
51714;SDS011;39115;59.332;18.034;2023-09-19T09:13:14;1.48;;;1.10;;
51714;SDS011;39115;59.332;18.034;2023-09-19T09:15:36;1.60;;;1.20;;
51714;SDS011;39115;59.332;18.034;2023-09-19T09:17:58;1.60;;;1.40;;
51714;SDS011;39115;59.332;18.034;2023-09-19T09:20:19;1.10;;;1.00;;
51714;SDS011;39115;59.332;18.034;2023-09-19T09:22:50;1.42;;;1.15;;
51714;SDS011;39115;59.332;18.034;2023-09-19T09:25:12;1.48;;;1.10;;
51714;SDS011;39115;59.332;18.034;2023-09-19T09:27:33;1.17;;;1.00;;
51714;SDS011;39115;59.332;18.034;2023-09-19T09:29:54;1.17;;;1.08;;
51714;SDS011;39115;59.332;18.034;2023-09-19T09:32:18;1.20;;;1.10;;
51714;SDS011;39115;59.332;18.034;2023-09-19T09:34:50;1.40;;;1.25;;
51714;SDS011;39115;59.332;18.034;2023-09-19T09:37:15;1.13;;;1.02;;
51714;SDS011;39115;59.332;18.034;2023-09-19T09:39:40;1.10;;;0.90;;
51714;SDS011;39115;59.332;18.034;2023-09-19T09:42:09;1.52;;;1.42;;
51714;SDS011;39115;59.332;18.034;2023-09-19T09:45:05;1.10;;;1.00;;
51714;SDS011;39115;59.332;18.034;2023-09-19T09:47:46;1.15;;;0.93;;
51714;SDS011;39115;59.332;18.034;2023-09-19T09:50:31;1.20;;;1.10;;
51714;SDS011;39115;59.332;18.034;2023-09-19T09:53:23;1.65;;;1.10;;
51714;SDS011;39115;59.332;18.034;2023-09-19T09:55:59;1.05;;;0.90;;
51714;SDS011;39115;59.332;18.034;2023-09-19T09:58:26;1.83;;;1.05;;
51714;SDS011;39115;59.332;18.034;2023-09-19T10:00:53;1.65;;;1.52;;
51714;SDS011;39115;59.332;18.034;2023-09-19T10:03:20;1.80;;;1.17;;
51714;SDS011;39115;59.332;18.034;2023-09-19T10:05:44;1.83;;;1.20;;
51714;SDS011;39115;59.332;18.034;2023-09-19T10:08:11;1.88;;;1.10;;
51714;SDS011;39115;59.332;18.034;2023-09-19T10:10:34;1.83;;;1.58;;
51714;SDS011;39115;59.332;18.034;2023-09-19T10:13:02;1.23;;;1.00;;
51714;SDS011;39115;59.332;18.034;2023-09-19T10:15:25;1.17;;;1.08;;
51714;SDS011;39115;59.332;18.034;2023-09-19T10:17:51;1.45;;;1.08;;
51714;SDS011;39115;59.332;18.034;2023-09-19T10:20:18;1.20;;;1.10;;
51714;SDS011;39115;59.332;18.034;2023-09-19T10:23:09;1.30;;;1.20;;
51714;SDS011;39115;59.332;18.034;2023-09-19T10:25:33;1.35;;;1.25;;
51714;SDS011;39115;59.332;18.034;2023-09-19T10:27:57;1.17;;;1.08;;
51714;SDS011;39115;59.332;18.034;2023-09-19T10:30:23;1.35;;;1.20;;
51714;SDS011;39115;59.332;18.034;2023-09-19T10:32:45;1.40;;;1.00;;
51714;SDS011;39115;59.332;18.034;2023-09-19T10:35:07;1.35;;;1.13;;
51714;SDS011;39115;59.332;18.034;2023-09-19T10:37:28;1.40;;;1.30;;
51714;SDS011;39115;59.332;18.034;2023-09-19T10:39:52;1.40;;;1.30;;
51714;SDS011;39115;59.332;18.034;2023-09-19T10:42:18;1.15;;;1.05;;
51714;SDS011;39115;59.332;18.034;2023-09-19T10:44:43;1.17;;;1.08;;
51714;SDS011;39115;59.332;18.034;2023-09-19T10:47:05;1.95;;;1.50;;
51714;SDS011;39115;59.332;18.034;2023-09-19T10:49:27;1.33;;;1.23;;
51714;SDS011;39115;59.332;18.034;2023-09-19T10:51:49;1.23;;;1.10;;
51714;SDS011;39115;59.332;18.034;2023-09-19T10:54:18;1.98;;;1.08;;
51714;SDS011;39115;59.332;18.034;2023-09-19T10:56:50;1.50;;;1.13;;
51714;SDS011;39115;59.332;18.034;2023-09-19T10:59:13;1.50;;;1.40;;
51714;SDS011;39115;59.332;18.034;2023-09-19T11:01:49;1.15;;;1.05;;
51714;SDS011;39115;59.332;18.034;2023-09-19T11:07:03;1.20;;;1.10;;
51714;SDS011;39115;59.332;18.034;2023-09-19T11:14:52;1.05;;;1.00;;
51714;SDS011;39115;59.332;18.034;2023-09-19T11:17:29;1.48;;;1.35;;
51714;SDS011;39115;59.332;18.034;2023-09-19T11:25:59;1.45;;;1.10;;
51714;SDS011;39115;59.332;18.034;2023-09-19T11:30:49;1.63;;;1.23;;
51714;SDS011;39115;59.332;18.034;2023-09-19T11:33:20;1.58;;;1.48;;
51714;SDS011;39115;59.332;18.034;2023-09-19T11:36:05;1.20;;;1.10;;
51714;SDS011;39115;59.332;18.034;2023-09-19T11:43:42;1.38;;;1.27;;
51714;SDS011;39115;59.332;18.034;2023-09-19T11:46:02;1.30;;;1.05;;
51714;SDS011;39115;59.332;18.034;2023-09-19T11:48:23;1.20;;;1.10;;
51714;SDS011;39115;59.332;18.034;2023-09-19T11:50:47;1.55;;;1.45;;
51714;SDS011;39115;59.332;18.034;2023-09-19T11:53:14;1.02;;;0.93;;
51714;SDS011;39115;59.332;18.034;2023-09-19T11:55:36;1.20;;;1.08;;
51714;SDS011;39115;59.332;18.034;2023-09-19T11:57:59;1.35;;;1.05;;
51714;SDS011;39115;59.332;18.034;2023-09-19T12:00:20;1.30;;;1.00;;
51714;SDS011;39115;59.332;18.034;2023-09-19T12:02:42;1.20;;;1.10;;
51714;SDS011;39115;59.332;18.034;2023-09-19T12:07:28;1.10;;;1.00;;
51714;SDS011;39115;59.332;18.034;2023-09-19T12:09:50;1.45;;;1.30;;
51714;SDS011;39115;59.332;18.034;2023-09-19T12:12:23;1.45;;;1.10;;
51714;SDS011;39115;59.332;18.034;2023-09-19T12:14:49;1.08;;;0.98;;
51714;SDS011;39115;59.332;18.034;2023-09-19T12:17:10;1.80;;;0.82;;
51714;SDS011;39115;59.332;18.034;2023-09-19T12:19:33;1.23;;;1.13;;
51714;SDS011;39115;59.332;18.034;2023-09-19T12:21:54;1.40;;;1.30;;
51714;SDS011;39115;59.332;18.034;2023-09-19T12:24:16;1.20;;;1.08;;
51714;SDS011;39115;59.332;18.034;2023-09-19T12:26:40;1.58;;;1.25;;
51714;SDS011;39115;59.332;18.034;2023-09-19T12:29:02;1.15;;;1.05;;
51714;SDS011;39115;59.332;18.034;2023-09-19T12:31:25;1.75;;;1.20;;
51714;SDS011;39115;59.332;18.034;2023-09-19T12:33:52;1.23;;;0.93;;
51714;SDS011;39115;59.332;18.034;2023-09-19T12:36:23;2.13;;;1.52;;
51714;SDS011;39115;59.332;18.034;2023-09-19T12:38:54;1.48;;;1.38;;
51714;SDS011;39115;59.332;18.034;2023-09-19T12:41:15;1.85;;;1.48;;
51714;SDS011;39115;59.332;18.034;2023-09-19T12:43:36;1.40;;;1.05;;
51714;SDS011;39115;59.332;18.034;2023-09-19T12:45:57;1.13;;;1.05;;
51714;SDS011;39115;59.332;18.034;2023-09-19T12:48:23;1.55;;;1.45;;
51714;SDS011;39115;59.332;18.034;2023-09-19T12:51:01;1.85;;;1.20;;
51714;SDS011;39115;59.332;18.034;2023-09-19T12:53:29;1.30;;;1.20;;
51714;SDS011;39115;59.332;18.034;2023-09-19T12:55:57;1.30;;;1.20;;
51714;SDS011;39115;59.332;18.034;2023-09-19T12:58:18;1.50;;;1.13;;
51714;SDS011;39115;59.332;18.034;2023-09-19T13:00:40;1.35;;;1.20;;
51714;SDS011;39115;59.332;18.034;2023-09-19T13:05:55;1.02;;;0.93;;
51714;SDS011;39115;59.332;18.034;2023-09-19T13:08:21;3.10;;;1.98;;
51714;SDS011;39115;59.332;18.034;2023-09-19T13:11:35;1.38;;;1.27;;
51714;SDS011;39115;59.332;18.034;2023-09-19T13:13:34;1.40;;;1.30;;
51714;SDS011;39115;59.332;18.034;2023-09-19T13:15:56;1.33;;;1.10;;
51714;SDS011;39115;59.332;18.034;2023-09-19T13:18:21;1.33;;;1.23;;
51714;SDS011;39115;59.332;18.034;2023-09-19T13:20:43;1.40;;;1.30;;
51714;SDS011;39115;59.332;18.034;2023-09-19T13:23:27;1.50;;;1.40;;
51714;SDS011;39115;59.332;18.034;2023-09-19T13:25:47;1.33;;;1.23;;
51714;SDS011;39115;59.332;18.034;2023-09-19T13:28:08;1.63;;;1.52;;
51714;SDS011;39115;59.332;18.034;2023-09-19T13:30:29;1.40;;;1.30;;
51714;SDS011;39115;59.332;18.034;2023-09-19T13:32:52;1.27;;;1.17;;
51714;SDS011;39115;59.332;18.034;2023-09-19T13:35:27;1.42;;;1.33;;
51714;SDS011;39115;59.332;18.034;2023-09-19T13:37:47;1.33;;;1.20;;
51714;SDS011;39115;59.332;18.034;2023-09-19T13:40:12;1.85;;;1.45;;
51714;SDS011;39115;59.332;18.034;2023-09-19T13:42:34;1.40;;;1.30;;
51714;SDS011;39115;59.332;18.034;2023-09-19T13:44:56;1.60;;;1.50;;
51714;SDS011;39115;59.332;18.034;2023-09-19T13:47:17;1.70;;;1.60;;
51714;SDS011;39115;59.332;18.034;2023-09-19T13:49:44;1.50;;;1.40;;
51714;SDS011;39115;59.332;18.034;2023-09-19T13:52:08;2.05;;;1.65;;
51714;SDS011;39115;59.332;18.034;2023-09-19T13:54:29;1.30;;;1.13;;
51714;SDS011;39115;59.332;18.034;2023-09-19T13:56:50;1.45;;;1.35;;
51714;SDS011;39115;59.332;18.034;2023-09-19T13:59:11;1.70;;;1.60;;
51714;SDS011;39115;59.332;18.034;2023-09-19T14:01:31;1.40;;;1.30;;
51714;SDS011;39115;59.332;18.034;2023-09-19T14:03:51;1.65;;;1.55;;
51714;SDS011;39115;59.332;18.034;2023-09-19T14:06:14;1.65;;;1.50;;
51714;SDS011;39115;59.332;18.034;2023-09-19T14:08:35;1.73;;;1.63;;
51714;SDS011;39115;59.332;18.034;2023-09-19T14:10:55;1.50;;;1.40;;
51714;SDS011;39115;59.332;18.034;2023-09-19T14:13:16;1.50;;;1.40;;
51714;SDS011;39115;59.332;18.034;2023-09-19T14:15:37;2.08;;;1.75;;
51714;SDS011;39115;59.332;18.034;2023-09-19T14:17:58;1.40;;;1.30;;
51714;SDS011;39115;59.332;18.034;2023-09-19T14:20:20;1.70;;;1.45;;
51714;SDS011;39115;59.332;18.034;2023-09-19T14:22:42;2.30;;;1.75;;
51714;SDS011;39115;59.332;18.034;2023-09-19T14:25:03;1.73;;;1.50;;
51714;SDS011;39115;59.332;18.034;2023-09-19T14:27:24;1.45;;;1.35;;
51714;SDS011;39115;59.332;18.034;2023-09-19T14:29:45;1.63;;;1.30;;
51714;SDS011;39115;59.332;18.034;2023-09-19T14:32:06;1.75;;;1.30;;
51714;SDS011;39115;59.332;18.034;2023-09-19T14:34:26;1.30;;;1.20;;
51714;SDS011;39115;59.332;18.034;2023-09-19T14:36:47;1.60;;;1.20;;
51714;SDS011;39115;59.332;18.034;2023-09-19T14:39:09;1.55;;;1.30;;
51714;SDS011;39115;59.332;18.034;2023-09-19T14:41:29;1.30;;;1.20;;
51714;SDS011;39115;59.332;18.034;2023-09-19T14:43:51;1.60;;;1.10;;
51714;SDS011;39115;59.332;18.034;2023-09-19T14:46:12;1.50;;;1.25;;
51714;SDS011;39115;59.332;18.034;2023-09-19T14:48:34;1.23;;;1.13;;
51714;SDS011;39115;59.332;18.034;2023-09-19T14:50:54;1.85;;;1.63;;
51714;SDS011;39115;59.332;18.034;2023-09-19T14:53:15;2.10;;;1.10;;
51714;SDS011;39115;59.332;18.034;2023-09-19T14:55:37;2.78;;;1.50;;
51714;SDS011;39115;59.332;18.034;2023-09-19T14:58:01;1.85;;;1.30;;
51714;SDS011;39115;59.332;18.034;2023-09-19T15:00:22;1.35;;;1.20;;
51714;SDS011;39115;59.332;18.034;2023-09-19T15:02:43;1.30;;;1.20;;
51714;SDS011;39115;59.332;18.034;2023-09-19T15:05:06;1.48;;;1.38;;
51714;SDS011;39115;59.332;18.034;2023-09-19T15:07:28;1.70;;;1.45;;
51714;SDS011;39115;59.332;18.034;2023-09-19T15:09:49;1.50;;;1.40;;